sensor_id;sensor_type;location;lat;lon;timestamp;pressure;altitude;pressure_sealevel;temperature;humidity
3122;BME280;1571;52.524;14.104;2023-05-03T00:01:07;102055.38;;;8.11;79.88
3122;BME280;1571;52.524;14.104;2023-05-03T00:03:35;102057.31;;;8.06;80.42
3122;BME280;1571;52.524;14.104;2023-05-03T00:06:09;102053.09;;;7.99;80.05
3122;BME280;1571;52.524;14.104;2023-05-03T00:08:39;102061.81;;;8.03;80.69
3122;BME280;1571;52.524;14.104;2023-05-03T00:11:08;102061.56;;;8.10;79.92
3122;BME280;1571;52.524;14.104;2023-05-03T00:13:36;102069.06;;;7.96;81.36
3122;BME280;1571;52.524;14.104;2023-05-03T00:16:05;102066.56;;;7.91;81.77
3122;BME280;1571;52.524;14.104;2023-05-03T00:18:33;102066.88;;;7.81;82.96
3122;BME280;1571;52.524;14.104;2023-05-03T00:21:02;102071.34;;;7.79;83.42
3122;BME280;1571;52.524;14.104;2023-05-03T00:23:30;102068.91;;;7.72;82.89
3122;BME280;1571;52.524;14.104;2023-05-03T00:25:59;102066.44;;;7.96;83.42
3122;BME280;1571;52.524;14.104;2023-05-03T00:28:28;102070.06;;;7.92;82.62
3122;BME280;1571;52.524;14.104;2023-05-03T00:30:56;102071.84;;;7.62;82.84
3122;BME280;1571;52.524;14.104;2023-05-03T00:33:24;102070.16;;;7.89;83.75
3122;BME280;1571;52.524;14.104;2023-05-03T00:35:52;102067.94;;;8.05;83.73
3122;BME280;1571;52.524;14.104;2023-05-03T00:38:20;102070.38;;;7.81;83.08
3122;BME280;1571;52.524;14.104;2023-05-03T00:40:53;102060.97;;;8.02;82.36
3122;BME280;1571;52.524;14.104;2023-05-03T00:43:22;102071.53;;;8.02;82.60
3122;BME280;1571;52.524;14.104;2023-05-03T00:45:51;102069.34;;;7.87;83.75
3122;BME280;1571;52.524;14.104;2023-05-03T00:48:28;102066.72;;;7.87;84.03
3122;BME280;1571;52.524;14.104;2023-05-03T00:50:57;102077.31;;;7.56;83.96
3122;BME280;1571;52.524;14.104;2023-05-03T00:53:25;102075.88;;;7.75;84.64
3122;BME280;1571;52.524;14.104;2023-05-03T00:55:54;102068.69;;;7.79;84.43
3122;BME280;1571;52.524;14.104;2023-05-03T00:58:24;102074.09;;;7.76;85.04
3122;BME280;1571;52.524;14.104;2023-05-03T01:00:53;102069.34;;;7.57;85.16
3122;BME280;1571;52.524;14.104;2023-05-03T01:03:21;102064.66;;;7.36;85.42
3122;BME280;1571;52.524;14.104;2023-05-03T01:05:54;102058.16;;;7.16;87.12
3122;BME280;1571;52.524;14.104;2023-05-03T01:08:30;102072.09;;;7.21;88.23
3122;BME280;1571;52.524;14.104;2023-05-03T01:11:06;102072.75;;;6.97;88.33
3122;BME280;1571;52.524;14.104;2023-05-03T01:13:42;102063.97;;;7.29;88.05
3122;BME280;1571;52.524;14.104;2023-05-03T01:16:15;102070.59;;;7.11;87.86
3122;BME280;1571;52.524;14.104;2023-05-03T01:18:46;102063.25;;;7.22;88.11
3122;BME280;1571;52.524;14.104;2023-05-03T01:21:16;102063.56;;;6.77;88.87
3122;BME280;1571;52.524;14.104;2023-05-03T01:23:51;102065.50;;;7.05;89.07
3122;BME280;1571;52.524;14.104;2023-05-03T01:26:23;102062.16;;;6.98;89.25
3122;BME280;1571;52.524;14.104;2023-05-03T01:28:53;102064.00;;;6.95;89.71
3122;BME280;1571;52.524;14.104;2023-05-03T01:31:26;102064.03;;;6.93;89.70
3122;BME280;1571;52.524;14.104;2023-05-03T01:34:06;102066.06;;;6.83;89.58
3122;BME280;1571;52.524;14.104;2023-05-03T01:36:42;102057.53;;;6.72;89.32
3122;BME280;1571;52.524;14.104;2023-05-03T01:39:13;102061.50;;;6.54;88.67
3122;BME280;1571;52.524;14.104;2023-05-03T01:41:45;102068.59;;;6.52;88.71
3122;BME280;1571;52.524;14.104;2023-05-03T01:44:18;102060.38;;;6.64;88.44
3122;BME280;1571;52.524;14.104;2023-05-03T01:46:48;102069.81;;;6.73;87.94
3122;BME280;1571;52.524;14.104;2023-05-03T01:49:16;102064.16;;;6.54;88.71
3122;BME280;1571;52.524;14.104;2023-05-03T01:51:44;102077.09;;;6.28;88.75
3122;BME280;1571;52.524;14.104;2023-05-03T01:54:13;102074.69;;;6.17;90.09
3122;BME280;1571;52.524;14.104;2023-05-03T01:56:42;102076.53;;;6.15;90.53
3122;BME280;1571;52.524;14.104;2023-05-03T01:59:11;102075.47;;;5.80;91.08
3122;BME280;1571;52.524;14.104;2023-05-03T02:01:40;102073.94;;;5.70;92.12
3122;BME280;1571;52.524;14.104;2023-05-03T02:04:08;102074.34;;;5.92;91.82
3122;BME280;1571;52.524;14.104;2023-05-03T02:06:36;102074.84;;;6.11;91.25
3122;BME280;1571;52.524;14.104;2023-05-03T02:09:05;102077.41;;;6.14;90.50
3122;BME280;1571;52.524;14.104;2023-05-03T02:11:33;102083.41;;;5.78;90.90
3122;BME280;1571;52.524;14.104;2023-05-03T02:14:02;102077.78;;;5.97;91.23
3122;BME280;1571;52.524;14.104;2023-05-03T02:16:31;102086.13;;;5.74;91.68
3122;BME280;1571;52.524;14.104;2023-05-03T02:18:59;102086.84;;;5.82;92.03
3122;BME280;1571;52.524;14.104;2023-05-03T02:21:28;102080.53;;;5.89;91.83
3122;BME280;1571;52.524;14.104;2023-05-03T02:23:57;102075.41;;;5.83;91.94
3122;BME280;1571;52.524;14.104;2023-05-03T02:26:25;102088.66;;;5.80;91.90
3122;BME280;1571;52.524;14.104;2023-05-03T02:28:54;102081.91;;;5.65;92.34
3122;BME280;1571;52.524;14.104;2023-05-03T02:31:26;102084.84;;;5.51;92.42
3122;BME280;1571;52.524;14.104;2023-05-03T02:33:58;102084.06;;;5.46;92.76
3122;BME280;1571;52.524;14.104;2023-05-03T02:36:26;102090.25;;;5.45;92.86
3122;BME280;1571;52.524;14.104;2023-05-03T02:38:55;102087.84;;;5.31;93.18
3122;BME280;1571;52.524;14.104;2023-05-03T02:41:23;102090.47;;;5.33;93.65
3122;BME280;1571;52.524;14.104;2023-05-03T02:43:52;102089.63;;;5.31;93.96
3122;BME280;1571;52.524;14.104;2023-05-03T02:46:20;102089.97;;;5.14;94.52
3122;BME280;1571;52.524;14.104;2023-05-03T02:48:49;102091.66;;;5.16;95.11
3122;BME280;1571;52.524;14.104;2023-05-03T02:51:18;102092.53;;;5.15;95.49
3122;BME280;1571;52.524;14.104;2023-05-03T02:53:48;102097.00;;;5.12;95.65
3122;BME280;1571;52.524;14.104;2023-05-03T02:56:16;102097.13;;;5.04;96.28
3122;BME280;1571;52.524;14.104;2023-05-03T02:58:44;102098.06;;;5.01;96.67
3122;BME280;1571;52.524;14.104;2023-05-03T03:01:13;102105.19;;;4.95;96.93
3122;BME280;1571;52.524;14.104;2023-05-03T03:03:41;102111.53;;;4.85;97.25
3122;BME280;1571;52.524;14.104;2023-05-03T03:06:09;102111.47;;;4.88;97.68
3122;BME280;1571;52.524;14.104;2023-05-03T03:08:39;102108.28;;;4.66;98.25
3122;BME280;1571;52.524;14.104;2023-05-03T03:11:08;102120.13;;;4.38;99.10
3122;BME280;1571;52.524;14.104;2023-05-03T03:13:36;102115.38;;;4.62;100.00
3122;BME280;1571;52.524;14.104;2023-05-03T03:16:07;102126.47;;;4.83;100.00
3122;BME280;1571;52.524;14.104;2023-05-03T03:18:35;102113.16;;;4.90;99.88
3122;BME280;1571;52.524;14.104;2023-05-03T03:21:04;102112.22;;;4.96;99.47
3122;BME280;1571;52.524;14.104;2023-05-03T03:23:34;102115.72;;;4.95;98.80
3122;BME280;1571;52.524;14.104;2023-05-03T03:26:04;102125.69;;;4.74;99.00
3122;BME280;1571;52.524;14.104;2023-05-03T03:28:33;102127.41;;;4.77;99.32
3122;BME280;1571;52.524;14.104;2023-05-03T03:31:07;102122.22;;;4.74;99.24
3122;BME280;1571;52.524;14.104;2023-05-03T03:33:35;102131.66;;;4.28;99.62
3122;BME280;1571;52.524;14.104;2023-05-03T03:36:09;102136.34;;;4.08;100.00
3122;BME280;1571;52.524;14.104;2023-05-03T03:38:41;102140.72;;;4.06;100.00
3122;BME280;1571;52.524;14.104;2023-05-03T03:41:11;102136.72;;;4.42;100.00
3122;BME280;1571;52.524;14.104;2023-05-03T03:43:40;102132.41;;;4.36;100.00
3122;BME280;1571;52.524;14.104;2023-05-03T03:46:15;102137.16;;;4.11;100.00
3122;BME280;1571;52.524;14.104;2023-05-03T03:48:44;102132.91;;;4.01;100.00
3122;BME280;1571;52.524;14.104;2023-05-03T03:51:13;102141.47;;;4.17;100.00
3122;BME280;1571;52.524;14.104;2023-05-03T03:53:46;102137.31;;;4.61;100.00
3122;BME280;1571;52.524;14.104;2023-05-03T03:56:16;102134.81;;;4.53;100.00
3122;BME280;1571;52.524;14.104;2023-05-03T03:58:46;102149.34;;;4.17;100.00
3122;BME280;1571;52.524;14.104;2023-05-03T04:01:15;102148.44;;;4.21;100.00
3122;BME280;1571;52.524;14.104;2023-05-03T04:03:44;102155.28;;;4.31;100.00
3122;BME280;1571;52.524;14.104;2023-05-03T04:06:13;102152.16;;;4.67;100.00
3122;BME280;1571;52.524;14.104;2023-05-03T04:08:41;102164.22;;;4.18;100.00
3122;BME280;1571;52.524;14.104;2023-05-03T04:11:11;102161.19;;;4.47;100.00
3122;BME280;1571;52.524;14.104;2023-05-03T04:13:47;102170.25;;;4.26;100.00
3122;BME280;1571;52.524;14.104;2023-05-03T04:16:15;102175.59;;;4.20;100.00
3122;BME280;1571;52.524;14.104;2023-05-03T04:18:45;102176.44;;;4.24;100.00
3122;BME280;1571;52.524;14.104;2023-05-03T04:21:13;102179.72;;;4.40;100.00
3122;BME280;1571;52.524;14.104;2023-05-03T04:23:42;102179.66;;;4.43;100.00
3122;BME280;1571;52.524;14.104;2023-05-03T04:26:12;102189.41;;;4.36;100.00
3122;BME280;1571;52.524;14.104;2023-05-03T04:28:59;102174.13;;;4.61;100.00
3122;BME280;1571;52.524;14.104;2023-05-03T04:31:27;102174.06;;;4.67;100.00
3122;BME280;1571;52.524;14.104;2023-05-03T04:33:57;102178.47;;;4.64;99.75
3122;BME280;1571;52.524;14.104;2023-05-03T04:36:26;102179.25;;;4.70;99.50
3122;BME280;1571;52.524;14.104;2023-05-03T04:38:57;102193.97;;;4.84;99.37
3122;BME280;1571;52.524;14.104;2023-05-03T04:41:25;102188.47;;;4.99;98.55
3122;BME280;1571;52.524;14.104;2023-05-03T04:43:55;102191.25;;;4.88;98.36
3122;BME280;1571;52.524;14.104;2023-05-03T04:46:25;102191.97;;;4.99;98.50
3122;BME280;1571;52.524;14.104;2023-05-03T04:48:54;102184.47;;;5.29;98.27
3122;BME280;1571;52.524;14.104;2023-05-03T04:51:22;102185.84;;;5.50;97.62
3122;BME280;1571;52.524;14.104;2023-05-03T04:53:52;102184.91;;;5.54;96.45
3122;BME280;1571;52.524;14.104;2023-05-03T04:56:21;102196.81;;;5.74;95.35
3122;BME280;1571;52.524;14.104;2023-05-03T04:58:58;102192.19;;;5.85;94.16
3122;BME280;1571;52.524;14.104;2023-05-03T05:01:28;102187.38;;;6.09;93.46
3122;BME280;1571;52.524;14.104;2023-05-03T05:04:00;102179.81;;;5.90;93.65
3122;BME280;1571;52.524;14.104;2023-05-03T05:06:36;102187.63;;;6.38;93.09
3122;BME280;1571;52.524;14.104;2023-05-03T05:09:05;102182.84;;;6.56;91.87
3122;BME280;1571;52.524;14.104;2023-05-03T05:11:35;102180.63;;;6.76;89.98
3122;BME280;1571;52.524;14.104;2023-05-03T05:14:03;102188.13;;;6.93;88.92
3122;BME280;1571;52.524;14.104;2023-05-03T05:16:33;102187.16;;;6.96;87.56
3122;BME280;1571;52.524;14.104;2023-05-03T05:19:02;102195.72;;;7.07;86.39
3122;BME280;1571;52.524;14.104;2023-05-03T05:21:30;102190.50;;;7.38;85.87
3122;BME280;1571;52.524;14.104;2023-05-03T05:23:59;102199.56;;;7.29;83.10
3122;BME280;1571;52.524;14.104;2023-05-03T05:26:28;102205.13;;;7.53;82.90
3122;BME280;1571;52.524;14.104;2023-05-03T05:28:57;102215.59;;;7.22;80.35
3122;BME280;1571;52.524;14.104;2023-05-03T05:31:25;102216.03;;;7.39;79.81
3122;BME280;1571;52.524;14.104;2023-05-03T05:33:55;102218.28;;;7.87;78.39
3122;BME280;1571;52.524;14.104;2023-05-03T05:36:23;102223.97;;;7.39;77.45
3122;BME280;1571;52.524;14.104;2023-05-03T05:38:52;102218.94;;;7.96;76.92
3122;BME280;1571;52.524;14.104;2023-05-03T05:41:20;102229.97;;;7.46;76.87
3122;BME280;1571;52.524;14.104;2023-05-03T05:43:48;102223.00;;;7.76;76.89
3122;BME280;1571;52.524;14.104;2023-05-03T05:46:17;102219.94;;;7.91;75.86
3122;BME280;1571;52.524;14.104;2023-05-03T05:48:48;102232.13;;;7.64;77.00
3122;BME280;1571;52.524;14.104;2023-05-03T05:51:22;102222.22;;;8.35;75.89
3122;BME280;1571;52.524;14.104;2023-05-03T05:53:50;102232.19;;;7.94;74.54
3122;BME280;1571;52.524;14.104;2023-05-03T05:56:19;102229.78;;;8.18;75.61
3122;BME280;1571;52.524;14.104;2023-05-03T05:58:49;102239.97;;;8.63;74.74
3122;BME280;1571;52.524;14.104;2023-05-03T06:01:17;102233.25;;;8.51;73.74
3122;BME280;1571;52.524;14.104;2023-05-03T06:03:46;102225.25;;;9.09;73.40
3122;BME280;1571;52.524;14.104;2023-05-03T06:06:14;102234.38;;;8.72;72.82
3122;BME280;1571;52.524;14.104;2023-05-03T06:08:43;102233.88;;;9.15;72.93
3122;BME280;1571;52.524;14.104;2023-05-03T06:11:15;102240.63;;;9.26;72.27
3122;BME280;1571;52.524;14.104;2023-05-03T06:13:44;102247.59;;;9.28;71.90
3122;BME280;1571;52.524;14.104;2023-05-03T06:16:15;102251.16;;;9.01;70.12
3122;BME280;1571;52.524;14.104;2023-05-03T06:18:43;102249.16;;;9.07;70.08
3122;BME280;1571;52.524;14.104;2023-05-03T06:21:11;102243.94;;;9.32;68.84
3122;BME280;1571;52.524;14.104;2023-05-03T06:23:40;102255.41;;;9.05;68.04
3122;BME280;1571;52.524;14.104;2023-05-03T06:26:11;102256.22;;;9.35;68.12
3122;BME280;1571;52.524;14.104;2023-05-03T06:28:39;102251.38;;;8.65;68.65
3122;BME280;1571;52.524;14.104;2023-05-03T06:31:07;102257.59;;;8.92;68.38
3122;BME280;1571;52.524;14.104;2023-05-03T06:33:36;102259.81;;;9.59;68.46
3122;BME280;1571;52.524;14.104;2023-05-03T06:36:06;102251.09;;;9.55;67.59
3122;BME280;1571;52.524;14.104;2023-05-03T06:38:36;102265.34;;;9.53;67.83
3122;BME280;1571;52.524;14.104;2023-05-03T06:41:04;102262.09;;;9.43;67.06
3122;BME280;1571;52.524;14.104;2023-05-03T06:43:34;102260.88;;;9.80;67.30
3122;BME280;1571;52.524;14.104;2023-05-03T06:46:04;102260.00;;;10.30;66.22
3122;BME280;1571;52.524;14.104;2023-05-03T06:48:33;102262.41;;;10.59;64.76
3122;BME280;1571;52.524;14.104;2023-05-03T06:51:01;102271.66;;;10.24;65.28
3122;BME280;1571;52.524;14.104;2023-05-03T06:53:30;102270.50;;;10.33;65.30
3122;BME280;1571;52.524;14.104;2023-05-03T06:55:58;102269.16;;;10.45;64.17
3122;BME280;1571;52.524;14.104;2023-05-03T06:58:26;102264.75;;;9.95;64.54
3122;BME280;1571;52.524;14.104;2023-05-03T07:00:56;102271.91;;;9.93;63.49
3122;BME280;1571;52.524;14.104;2023-05-03T07:03:24;102280.59;;;10.21;63.97
3122;BME280;1571;52.524;14.104;2023-05-03T07:05:52;102265.56;;;10.47;62.50
3122;BME280;1571;52.524;14.104;2023-05-03T07:08:21;102274.81;;;10.82;61.95
3122;BME280;1571;52.524;14.104;2023-05-03T07:10:49;102280.50;;;10.95;62.59
3122;BME280;1571;52.524;14.104;2023-05-03T07:13:17;102284.44;;;10.85;61.16
3122;BME280;1571;52.524;14.104;2023-05-03T07:15:45;102276.78;;;10.77;61.65
3122;BME280;1571;52.524;14.104;2023-05-03T07:18:15;102283.72;;;10.81;61.78
3122;BME280;1571;52.524;14.104;2023-05-03T07:20:43;102282.31;;;10.95;60.64
3122;BME280;1571;52.524;14.104;2023-05-03T07:23:12;102280.63;;;11.36;60.59
3122;BME280;1571;52.524;14.104;2023-05-03T07:25:40;102290.31;;;10.48;60.79
3122;BME280;1571;52.524;14.104;2023-05-03T07:28:08;102289.16;;;11.00;61.79
3122;BME280;1571;52.524;14.104;2023-05-03T07:30:37;102282.19;;;11.20;59.96
3122;BME280;1571;52.524;14.104;2023-05-03T07:33:05;102276.91;;;11.40;60.11
3122;BME280;1571;52.524;14.104;2023-05-03T07:35:35;102276.34;;;11.32;58.72
3122;BME280;1571;52.524;14.104;2023-05-03T07:38:03;102281.59;;;11.56;59.19
3122;BME280;1571;52.524;14.104;2023-05-03T07:40:32;102279.97;;;11.09;59.03
3122;BME280;1571;52.524;14.104;2023-05-03T07:43:00;102266.97;;;11.86;59.75
3122;BME280;1571;52.524;14.104;2023-05-03T07:45:29;102275.28;;;11.58;58.55
3122;BME280;1571;52.524;14.104;2023-05-03T07:47:57;102285.94;;;11.36;58.91
3122;BME280;1571;52.524;14.104;2023-05-03T07:50:25;102289.88;;;10.82;59.84
3122;BME280;1571;52.524;14.104;2023-05-03T07:52:55;102287.47;;;10.52;59.63
3122;BME280;1571;52.524;14.104;2023-05-03T07:55:23;102297.72;;;10.38;60.66
3122;BME280;1571;52.524;14.104;2023-05-03T07:57:52;102286.63;;;10.52;59.40
3122;BME280;1571;52.524;14.104;2023-05-03T08:00:24;102287.44;;;10.54;59.01
3122;BME280;1571;52.524;14.104;2023-05-03T08:02:53;102288.28;;;10.54;58.53
3122;BME280;1571;52.524;14.104;2023-05-03T08:05:22;102289.78;;;10.61;59.11
3122;BME280;1571;52.524;14.104;2023-05-03T08:07:50;102282.50;;;10.90;57.91
3122;BME280;1571;52.524;14.104;2023-05-03T08:10:20;102274.06;;;11.23;57.27
3122;BME280;1571;52.524;14.104;2023-05-03T08:12:49;102275.34;;;11.35;57.16
3122;BME280;1571;52.524;14.104;2023-05-03T08:15:17;102286.50;;;11.00;57.37
3122;BME280;1571;52.524;14.104;2023-05-03T08:17:46;102282.38;;;11.15;56.58
3122;BME280;1571;52.524;14.104;2023-05-03T08:20:14;102279.81;;;11.12;55.78
3122;BME280;1571;52.524;14.104;2023-05-03T08:22:43;102288.78;;;11.10;55.87
3122;BME280;1571;52.524;14.104;2023-05-03T08:25:12;102290.16;;;11.42;55.17
3122;BME280;1571;52.524;14.104;2023-05-03T08:27:44;102277.13;;;11.99;54.88
3122;BME280;1571;52.524;14.104;2023-05-03T08:30:12;102263.91;;;12.37;53.61
3122;BME280;1571;52.524;14.104;2023-05-03T08:32:41;102268.28;;;12.38;53.74
3122;BME280;1571;52.524;14.104;2023-05-03T08:35:10;102269.75;;;11.20;54.40
3122;BME280;1571;52.524;14.104;2023-05-03T08:37:40;102272.53;;;12.42;55.74
3122;BME280;1571;52.524;14.104;2023-05-03T08:40:10;102275.97;;;12.25;54.00
3122;BME280;1571;52.524;14.104;2023-05-03T08:42:41;102267.63;;;12.33;53.21
3122;BME280;1571;52.524;14.104;2023-05-03T08:45:12;102273.00;;;11.92;52.73
3122;BME280;1571;52.524;14.104;2023-05-03T08:47:42;102290.41;;;11.14;54.07
3122;BME280;1571;52.524;14.104;2023-05-03T08:50:12;102292.72;;;11.65;54.18
3122;BME280;1571;52.524;14.104;2023-05-03T08:52:42;102286.72;;;12.03;53.24
3122;BME280;1571;52.524;14.104;2023-05-03T08:55:10;102295.75;;;11.56;53.94
3122;BME280;1571;52.524;14.104;2023-05-03T08:57:39;102293.22;;;11.53;54.00
3122;BME280;1571;52.524;14.104;2023-05-03T09:00:08;102292.34;;;11.53;53.35
3122;BME280;1571;52.524;14.104;2023-05-03T09:02:40;102284.22;;;11.35;53.69
3122;BME280;1571;52.524;14.104;2023-05-03T09:05:30;102294.03;;;10.89;54.75
3122;BME280;1571;52.524;14.104;2023-05-03T09:08:03;102300.91;;;10.95;55.02
3122;BME280;1571;52.524;14.104;2023-05-03T09:10:34;102302.88;;;11.12;54.10
3122;BME280;1571;52.524;14.104;2023-05-03T09:13:03;102298.75;;;11.04;54.26
3122;BME280;1571;52.524;14.104;2023-05-03T09:15:33;102299.59;;;10.59;53.77
3122;BME280;1571;52.524;14.104;2023-05-03T09:18:09;102301.09;;;10.90;54.18
3122;BME280;1571;52.524;14.104;2023-05-03T09:20:38;102311.38;;;10.76;55.85
3122;BME280;1571;52.524;14.104;2023-05-03T09:23:08;102307.75;;;11.66;54.58
3122;BME280;1571;52.524;14.104;2023-05-03T09:25:43;102294.34;;;12.11;54.03
3122;BME280;1571;52.524;14.104;2023-05-03T09:28:13;102298.56;;;12.75;55.18
3122;BME280;1571;52.524;14.104;2023-05-03T09:30:41;102283.00;;;13.21;52.49
3122;BME280;1571;52.524;14.104;2023-05-03T09:33:11;102286.16;;;12.93;49.94
3122;BME280;1571;52.524;14.104;2023-05-03T09:35:55;102283.59;;;12.33;52.46
3122;BME280;1571;52.524;14.104;2023-05-03T09:38:27;102286.81;;;12.60;52.31
3122;BME280;1571;52.524;14.104;2023-05-03T09:40:56;102286.97;;;11.97;50.98
3122;BME280;1571;52.524;14.104;2023-05-03T09:43:24;102285.16;;;12.18;51.08
3122;BME280;1571;52.524;14.104;2023-05-03T09:46:06;102270.75;;;12.61;50.32
3122;BME280;1571;52.524;14.104;2023-05-03T09:48:37;102271.06;;;13.29;51.36
3122;BME280;1571;52.524;14.104;2023-05-03T09:51:06;102271.31;;;13.42;50.36
3122;BME280;1571;52.524;14.104;2023-05-03T09:53:36;102272.91;;;13.81;50.71
3122;BME280;1571;52.524;14.104;2023-05-03T09:56:06;102265.19;;;13.92;48.32
3122;BME280;1571;52.524;14.104;2023-05-03T09:58:36;102263.47;;;13.57;48.55
3122;BME280;1571;52.524;14.104;2023-05-03T10:01:04;102278.84;;;13.34;49.12
3122;BME280;1571;52.524;14.104;2023-05-03T10:03:39;102272.88;;;13.29;49.40
3122;BME280;1571;52.524;14.104;2023-05-03T10:06:19;102267.94;;;12.45;50.52
3122;BME280;1571;52.524;14.104;2023-05-03T10:08:52;102268.66;;;12.49;51.00
3122;BME280;1571;52.524;14.104;2023-05-03T10:11:23;102270.66;;;12.44;51.61
3122;BME280;1571;52.524;14.104;2023-05-03T10:13:53;102284.81;;;12.25;53.21
3122;BME280;1571;52.524;14.104;2023-05-03T10:16:25;102271.34;;;12.28;52.10
3122;BME280;1571;52.524;14.104;2023-05-03T10:19:05;102273.63;;;12.17;52.72
3122;BME280;1571;52.524;14.104;2023-05-03T10:21:46;102274.09;;;13.03;53.09
3122;BME280;1571;52.524;14.104;2023-05-03T10:24:18;102250.88;;;13.93;51.58
3122;BME280;1571;52.524;14.104;2023-05-03T10:26:49;102242.56;;;13.82;49.12
3122;BME280;1571;52.524;14.104;2023-05-03T10:29:45;102235.81;;;14.59;48.95
3122;BME280;1571;52.524;14.104;2023-05-03T10:32:32;102241.06;;;14.61;49.67
3122;BME280;1571;52.524;14.104;2023-05-03T10:35:05;102234.53;;;14.66;47.90
3122;BME280;1571;52.524;14.104;2023-05-03T10:37:34;102227.94;;;15.04;47.16
3122;BME280;1571;52.524;14.104;2023-05-03T10:40:05;102221.72;;;15.49;46.00
3122;BME280;1571;52.524;14.104;2023-05-03T10:42:35;102234.56;;;15.12;47.95
3122;BME280;1571;52.524;14.104;2023-05-03T10:45:06;102230.03;;;14.67;47.23
3122;BME280;1571;52.524;14.104;2023-05-03T10:47:35;102261.09;;;12.59;49.71
3122;BME280;1571;52.524;14.104;2023-05-03T10:50:27;102259.31;;;12.20;51.70
3122;BME280;1571;52.524;14.104;2023-05-03T10:52:55;102262.88;;;12.96;52.86
3122;BME280;1571;52.524;14.104;2023-05-03T10:55:24;102259.38;;;13.32;50.41
3122;BME280;1571;52.524;14.104;2023-05-03T10:57:54;102236.63;;;13.60;49.25
3122;BME280;1571;52.524;14.104;2023-05-03T11:00:28;102244.47;;;13.45;49.73
3122;BME280;1571;52.524;14.104;2023-05-03T11:06:04;102239.59;;;13.00;49.33
3122;BME280;1571;52.524;14.104;2023-05-03T11:08:33;102239.56;;;14.06;49.40
3122;BME280;1571;52.524;14.104;2023-05-03T11:11:03;102230.28;;;14.13;46.46
3122;BME280;1571;52.524;14.104;2023-05-03T11:13:35;102221.19;;;14.33;47.54
3122;BME280;1571;52.524;14.104;2023-05-03T11:16:04;102224.13;;;14.44;47.82
3122;BME280;1571;52.524;14.104;2023-05-03T11:18:33;102214.66;;;15.02;47.02
3122;BME280;1571;52.524;14.104;2023-05-03T11:21:01;102211.81;;;15.35;46.17
3122;BME280;1571;52.524;14.104;2023-05-03T11:23:31;102196.38;;;14.94;44.61
3122;BME280;1571;52.524;14.104;2023-05-03T11:25:59;102204.88;;;14.71;44.64
3122;BME280;1571;52.524;14.104;2023-05-03T11:28:28;102197.91;;;14.19;45.42
3122;BME280;1571;52.524;14.104;2023-05-03T11:30:56;102197.78;;;14.05;46.16
3122;BME280;1571;52.524;14.104;2023-05-03T11:33:24;102210.47;;;13.66;47.06
3122;BME280;1571;52.524;14.104;2023-05-03T11:35:54;102210.66;;;13.81;48.45
3122;BME280;1571;52.524;14.104;2023-05-03T11:38:23;102207.81;;;14.17;46.66
3122;BME280;1571;52.524;14.104;2023-05-03T11:40:53;102205.16;;;14.49;45.67
3122;BME280;1571;52.524;14.104;2023-05-03T11:43:21;102210.22;;;13.38;46.73
3122;BME280;1571;52.524;14.104;2023-05-03T11:45:53;102205.69;;;13.73;46.40
3122;BME280;1571;52.524;14.104;2023-05-03T11:48:23;102213.31;;;14.14;47.34
3122;BME280;1571;52.524;14.104;2023-05-03T11:50:54;102202.97;;;14.57;47.39
3122;BME280;1571;52.524;14.104;2023-05-03T11:53:23;102203.56;;;14.62;45.65
3122;BME280;1571;52.524;14.104;2023-05-03T11:55:53;102206.81;;;14.99;47.41
3122;BME280;1571;52.524;14.104;2023-05-03T11:58:23;102194.47;;;14.17;45.22
3122;BME280;1571;52.524;14.104;2023-05-03T12:00:53;102200.56;;;13.86;47.08
3122;BME280;1571;52.524;14.104;2023-05-03T12:03:23;102202.78;;;14.60;47.27
3122;BME280;1571;52.524;14.104;2023-05-03T12:05:58;102169.88;;;15.36;44.07
3122;BME280;1571;52.524;14.104;2023-05-03T12:08:29;102184.31;;;15.17;45.03
3122;BME280;1571;52.524;14.104;2023-05-03T12:11:05;102185.13;;;14.73;45.33
3122;BME280;1571;52.524;14.104;2023-05-03T12:13:37;102177.81;;;15.07;44.43
3122;BME280;1571;52.524;14.104;2023-05-03T12:16:08;102174.75;;;15.29;44.61
3122;BME280;1571;52.524;14.104;2023-05-03T12:18:44;102169.47;;;15.28;45.00
3122;BME280;1571;52.524;14.104;2023-05-03T12:21:14;102174.63;;;15.01;44.65
3122;BME280;1571;52.524;14.104;2023-05-03T12:23:46;102180.69;;;15.04;45.45
3122;BME280;1571;52.524;14.104;2023-05-03T12:26:18;102162.38;;;14.66;44.02
3122;BME280;1571;52.524;14.104;2023-05-03T12:28:48;102173.09;;;14.49;45.13
3122;BME280;1571;52.524;14.104;2023-05-03T12:31:16;102177.59;;;14.96;46.22
3122;BME280;1571;52.524;14.104;2023-05-03T12:33:46;102170.34;;;14.98;44.76
3122;BME280;1571;52.524;14.104;2023-05-03T12:36:34;102162.19;;;15.15;43.94
3122;BME280;1571;52.524;14.104;2023-05-03T12:39:04;102154.22;;;15.44;44.45
3122;BME280;1571;52.524;14.104;2023-05-03T12:41:37;102160.81;;;15.08;44.15
3122;BME280;1571;52.524;14.104;2023-05-03T12:44:26;102145.13;;;15.47;43.00
3122;BME280;1571;52.524;14.104;2023-05-03T12:46:55;102156.72;;;15.47;43.56
3122;BME280;1571;52.524;14.104;2023-05-03T12:49:27;102147.72;;;15.48;41.88
3122;BME280;1571;52.524;14.104;2023-05-03T12:51:55;102137.78;;;15.36;42.22
3122;BME280;1571;52.524;14.104;2023-05-03T12:54:29;102146.31;;;15.57;44.04
3122;BME280;1571;52.524;14.104;2023-05-03T12:57:01;102133.88;;;15.70;42.70
3122;BME280;1571;52.524;14.104;2023-05-03T12:59:35;102131.72;;;15.77;41.28
3122;BME280;1571;52.524;14.104;2023-05-03T13:02:08;102144.31;;;14.54;42.91
3122;BME280;1571;52.524;14.104;2023-05-03T13:04:39;102142.22;;;14.91;43.53
3122;BME280;1571;52.524;14.104;2023-05-03T13:07:26;102137.56;;;15.39;44.36
3122;BME280;1571;52.524;14.104;2023-05-03T13:09:58;102137.78;;;15.36;43.54
3122;BME280;1571;52.524;14.104;2023-05-03T13:12:30;102126.75;;;15.26;42.47
3122;BME280;1571;52.524;14.104;2023-05-03T13:15:00;102129.75;;;15.06;42.75
3122;BME280;1571;52.524;14.104;2023-05-03T13:17:30;102149.25;;;14.46;45.49
3122;BME280;1571;52.524;14.104;2023-05-03T13:19:59;102140.59;;;15.18;44.93
3122;BME280;1571;52.524;14.104;2023-05-03T13:22:27;102145.78;;;14.44;44.17
3122;BME280;1571;52.524;14.104;2023-05-03T13:24:55;102132.75;;;13.90;43.91